createdAt,value
2018-08-23T00:00:48.216Z,24.68
2018-08-23T00:03:22.573Z,24.66
2018-08-23T00:05:54.461Z,24.67
2018-08-23T00:08:24.022Z,24.66
2018-08-23T00:10:53.958Z,24.66
2018-08-23T00:13:23.323Z,24.65
2018-08-23T00:15:52.480Z,24.63
2018-08-23T00:18:21.563Z,24.62
2018-08-23T00:20:50.775Z,24.65
2018-08-23T00:23:19.875Z,24.64
2018-08-23T00:25:48.997Z,24.64
2018-08-23T00:28:18.052Z,24.62
2018-08-23T00:30:47.159Z,24.62
2018-08-23T00:33:16.235Z,24.63
2018-08-23T00:35:45.302Z,24.64
2018-08-23T00:38:14.447Z,24.63
2018-08-23T00:40:44.826Z,24.61
2018-08-23T00:43:15.043Z,24.60
2018-08-23T00:45:44.147Z,24.60
2018-08-23T00:48:13.471Z,24.61
2018-08-23T00:50:52.643Z,24.60
2018-08-23T00:53:21.801Z,24.60
2018-08-23T00:56:02.768Z,24.56
2018-08-23T00:58:31.880Z,24.58
2018-08-23T01:01:02.760Z,24.59
2018-08-23T01:03:32.020Z,24.58
2018-08-23T01:06:01.134Z,24.58
2018-08-23T01:08:33.151Z,24.54
2018-08-23T01:11:03.065Z,24.56
2018-08-23T01:13:32.124Z,24.54
2018-08-23T01:16:01.192Z,24.53
2018-08-23T01:18:30.277Z,24.52
2018-08-23T01:20:59.330Z,24.53
2018-08-23T01:23:28.486Z,24.51
2018-08-23T01:25:57.586Z,24.53
2018-08-23T01:28:26.660Z,24.53
2018-08-23T01:30:55.875Z,24.52
2018-08-23T01:33:24.932Z,24.47
2018-08-23T01:35:53.990Z,24.52
2018-08-23T01:38:23.156Z,24.49
2018-08-23T01:40:58.336Z,24.51
2018-08-23T01:43:27.430Z,24.52
2018-08-23T01:45:56.558Z,24.55
2018-08-23T01:48:25.758Z,24.56
2018-08-23T01:50:54.820Z,24.54
2018-08-23T01:53:28.460Z,24.47
2018-08-23T01:55:57.592Z,24.48
2018-08-23T01:58:26.677Z,24.48
2018-08-23T02:01:11.842Z,24.47
2018-08-23T02:03:41.042Z,24.51
2018-08-23T02:06:11.788Z,24.51
2018-08-23T02:08:42.529Z,24.49
2018-08-23T02:11:11.616Z,24.48
2018-08-23T02:13:40.810Z,24.48
2018-08-23T02:16:09.876Z,24.45
2018-08-23T02:18:38.926Z,24.24
2018-08-23T02:21:10.628Z,24.30
2018-08-23T02:23:45.543Z,24.35
2018-08-23T02:26:15.172Z,24.33
2018-08-23T02:28:45.376Z,24.36
2018-08-23T02:31:14.500Z,24.37
2018-08-23T02:33:43.589Z,24.36
2018-08-23T02:36:19.028Z,24.37
2018-08-23T02:38:53.519Z,24.38
2018-08-23T02:41:22.691Z,24.39
2018-08-23T02:43:51.798Z,24.39
2018-08-23T02:46:20.981Z,24.41
2018-08-23T02:48:50.046Z,24.38
2018-08-23T02:51:19.096Z,24.40
2018-08-23T02:53:52.024Z,24.41
2018-08-23T02:56:21.694Z,24.40
2018-08-23T02:58:57.013Z,24.39
2018-08-23T03:01:27.946Z,24.40
2018-08-23T03:04:09.858Z,24.39
2018-08-23T03:06:43.939Z,24.39
2018-08-23T03:09:13.043Z,24.42
2018-08-23T03:11:42.107Z,24.42
2018-08-23T03:14:11.689Z,24.43
2018-08-23T03:16:52.183Z,24.44
2018-08-23T03:19:21.286Z,24.44
2018-08-23T03:21:59.473Z,24.42
2018-08-23T03:24:28.634Z,24.41
2018-08-23T03:26:57.699Z,24.32
2018-08-23T03:29:26.752Z,24.33
2018-08-23T03:31:55.879Z,24.33
2018-08-23T03:34:24.935Z,24.37
2018-08-23T03:36:54.021Z,24.37
2018-08-23T03:39:23.167Z,24.35
2018-08-23T03:41:52.267Z,24.39
2018-08-23T03:44:26.599Z,24.39
2018-08-23T03:46:56.111Z,24.38
2018-08-23T03:49:27.004Z,24.39
2018-08-23T03:51:56.355Z,24.39
2018-08-23T03:54:25.415Z,24.40
2018-08-23T03:57:11.399Z,24.43
2018-08-23T03:59:43.301Z,24.39
2018-08-23T04:02:13.219Z,24.39
2018-08-23T04:04:42.707Z,24.36
2018-08-23T04:07:11.783Z,24.37
2018-08-23T04:09:41.055Z,24.40
2018-08-23T04:12:10.197Z,24.37
2018-08-23T04:14:39.364Z,24.37
2018-08-23T04:17:09.672Z,24.38
2018-08-23T04:19:49.627Z,24.41
2018-08-23T04:22:18.743Z,24.42
2018-08-23T04:24:56.381Z,24.42
2018-08-23T04:27:25.595Z,24.44
2018-08-23T04:29:54.679Z,24.39
2018-08-23T04:32:29.327Z,24.39
2018-08-23T04:35:00.042Z,24.39
2018-08-23T04:37:30.199Z,24.40
2018-08-23T04:40:04.029Z,24.41
2018-08-23T04:42:33.219Z,24.40
2018-08-23T04:45:13.595Z,24.40
2018-08-23T04:47:49.427Z,24.41
2018-08-23T04:50:18.545Z,24.40
2018-08-23T04:52:47.733Z,24.41
2018-08-23T04:55:16.796Z,24.41
2018-08-23T04:57:45.935Z,24.40
2018-08-23T05:00:15.001Z,24.39
2018-08-23T05:02:44.059Z,24.39
2018-08-23T05:05:13.241Z,24.39
2018-08-23T05:07:42.329Z,24.42
2018-08-23T05:10:11.523Z,24.42
2018-08-23T05:12:41.739Z,24.37
2018-08-23T05:15:10.932Z,24.37
2018-08-23T05:17:40.206Z,24.33
2018-08-23T05:20:09.608Z,24.29
2018-08-23T05:22:39.315Z,24.33
2018-08-23T05:25:15.852Z,24.33
2018-08-23T05:28:01.595Z,24.37
2018-08-23T05:30:30.696Z,24.40
2018-08-23T05:33:17.587Z,24.40
2018-08-23T05:35:46.775Z,24.43
2018-08-23T05:38:16.399Z,24.45
2018-08-23T05:40:47.024Z,24.46
2018-08-23T05:43:16.732Z,24.46
2018-08-23T05:45:55.359Z,24.47
2018-08-23T05:48:31.872Z,24.46
2018-08-23T05:51:02.909Z,24.46
2018-08-23T05:53:32.017Z,24.52
2018-08-23T05:56:01.769Z,24.50
2018-08-23T05:58:32.918Z,24.51
2018-08-23T06:01:02.327Z,24.43
2018-08-23T06:03:31.469Z,24.50
2018-08-23T06:06:00.579Z,24.46
2018-08-23T06:08:29.704Z,24.49
2018-08-23T06:11:05.308Z,24.51
2018-08-23T06:13:34.539Z,24.50
2018-08-23T06:16:03.625Z,24.47
2018-08-23T06:18:32.783Z,24.47
2018-08-23T06:21:01.888Z,24.45
2018-08-23T06:23:58.843Z,24.48
2018-08-23T06:26:50.947Z,24.47
2018-08-23T06:29:22.331Z,24.51
2018-08-23T06:32:10.632Z,24.51
2018-08-23T06:34:45.687Z,24.48
2018-08-23T06:37:15.203Z,24.52
2018-08-23T06:39:44.349Z,24.54
2018-08-23T06:42:13.521Z,24.52
2018-08-23T06:44:47.965Z,24.52
2018-08-23T06:47:18.420Z,24.52
2018-08-23T06:49:48.727Z,24.53
2018-08-23T06:52:27.985Z,24.57
2018-08-23T06:54:57.137Z,24.59
2018-08-23T06:57:27.429Z,24.59
2018-08-23T06:59:56.527Z,24.61
2018-08-23T07:02:25.599Z,24.59
2018-08-23T07:04:54.699Z,24.53
2018-08-23T07:07:23.810Z,24.56
2018-08-23T07:09:52.915Z,24.55
2018-08-23T07:12:22.011Z,24.50
2018-08-23T07:14:51.463Z,24.56
2018-08-23T07:17:26.862Z,24.53
2018-08-23T07:20:00.141Z,24.54
2018-08-23T07:22:29.240Z,24.58
2018-08-23T07:24:59.464Z,24.51
2018-08-23T07:27:28.544Z,24.33
2018-08-23T07:29:58.955Z,24.35
2018-08-23T07:32:31.128Z,24.43
2018-08-23T07:35:05.837Z,24.44
2018-08-23T07:37:36.382Z,24.36
2018-08-23T07:40:10.203Z,24.45
2018-08-23T07:42:40.506Z,24.48
2018-08-23T07:45:10.213Z,24.46
2018-08-23T07:47:43.515Z,24.52
2018-08-23T07:50:12.768Z,24.55
2018-08-23T07:52:43.937Z,24.59
2018-08-23T07:55:13.212Z,24.63
2018-08-23T07:57:42.548Z,24.63
2018-08-23T08:00:38.028Z,24.65
2018-08-23T08:03:07.588Z,24.73
2018-08-23T08:05:37.645Z,24.63
2018-08-23T08:08:07.496Z,24.68
2018-08-23T08:10:43.967Z,24.74
2018-08-23T08:13:13.078Z,24.73
2018-08-23T08:15:42.189Z,24.68
2018-08-23T08:18:16.070Z,24.73
2018-08-23T08:20:51.045Z,24.66
2018-08-23T08:23:20.307Z,24.70
2018-08-23T08:25:49.847Z,24.68
2018-08-23T08:28:19.514Z,24.73
2018-08-23T08:30:53.091Z,24.78
2018-08-23T08:33:22.844Z,24.82
2018-08-23T08:35:56.239Z,24.87
2018-08-23T08:38:25.328Z,24.87
2018-08-23T08:40:54.424Z,24.92
2018-08-23T08:43:23.592Z,24.82
2018-08-23T08:45:56.093Z,24.88
2018-08-23T08:48:31.538Z,24.93
2018-08-23T08:51:20.920Z,24.98
2018-08-23T08:53:50.612Z,25.03
2018-08-23T08:56:28.022Z,25.01
2018-08-23T08:58:57.145Z,25.00
2018-08-23T09:01:26.419Z,24.90
2018-08-23T09:04:01.075Z,24.96
2018-08-23T09:06:45.971Z,24.98
2018-08-23T09:09:30.554Z,24.93
2018-08-23T09:12:06.770Z,25.01
2018-08-23T09:14:42.404Z,25.03
2018-08-23T09:17:28.206Z,25.07
2018-08-23T09:20:08.297Z,25.09
2018-08-23T09:22:42.868Z,25.00
2018-08-23T09:25:17.036Z,25.03
2018-08-23T09:27:48.635Z,25.07
2018-08-23T09:30:23.189Z,24.97
2018-08-23T09:32:52.357Z,24.96
2018-08-23T09:35:24.805Z,24.89
2018-08-23T09:37:56.759Z,24.90
2018-08-23T09:40:26.714Z,24.91
2018-08-23T09:42:55.996Z,24.90
2018-08-23T09:45:25.345Z,24.82
2018-08-23T09:47:54.724Z,24.70
2018-08-23T09:50:23.798Z,24.67
2018-08-23T09:52:52.898Z,24.66
2018-08-23T09:55:24.995Z,24.71
2018-08-23T09:57:54.116Z,24.69
2018-08-23T10:00:25.347Z,24.73
2018-08-23T10:02:59.778Z,24.72
2018-08-23T10:05:34.196Z,24.73
2018-08-23T10:08:08.964Z,24.74
2018-08-23T10:10:43.356Z,24.73
2018-08-23T10:13:17.768Z,24.67
2018-08-23T10:15:52.182Z,24.69
2018-08-23T10:18:27.119Z,24.72
2018-08-23T10:20:59.235Z,24.74
2018-08-23T10:23:28.409Z,24.77
2018-08-23T10:25:59.006Z,24.70
2018-08-23T10:28:38.862Z,24.67
2018-08-23T10:31:13.572Z,24.64
2018-08-23T10:33:42.678Z,24.59
2018-08-23T10:36:11.762Z,24.58
2018-08-23T10:38:40.882Z,24.50
2018-08-23T10:41:10.082Z,24.53
2018-08-23T10:43:44.366Z,24.58
2018-08-23T10:46:13.496Z,24.55
2018-08-23T10:48:42.726Z,24.55
2018-08-23T10:51:12.242Z,24.51
2018-08-23T10:53:41.376Z,24.51
2018-08-23T10:56:10.566Z,24.55
2018-08-23T10:58:39.669Z,24.51
2018-08-23T11:01:08.859Z,24.50
2018-08-23T11:03:37.966Z,24.50
2018-08-23T11:06:07.070Z,24.52
2018-08-23T11:08:37.643Z,24.53
2018-08-23T11:11:12.040Z,24.52
2018-08-23T11:13:46.286Z,24.48
2018-08-23T11:16:20.655Z,24.50
2018-08-23T11:18:55.088Z,24.52
2018-08-23T11:21:24.262Z,24.49
2018-08-23T11:23:53.356Z,24.47
2018-08-23T11:26:24.988Z,24.42
2018-08-23T11:28:54.054Z,24.43
2018-08-23T11:31:30.540Z,24.37
2018-08-23T11:33:59.728Z,24.41
2018-08-23T11:36:28.839Z,24.46
2018-08-23T11:38:57.959Z,24.43
2018-08-23T11:41:27.151Z,24.47
2018-08-23T11:43:56.285Z,24.47
2018-08-23T11:46:25.414Z,24.51
2018-08-23T11:48:54.553Z,24.50
2018-08-23T11:51:23.795Z,24.50
2018-08-23T11:53:52.940Z,24.46
2018-08-23T11:56:22.175Z,24.49
2018-08-23T11:58:51.246Z,24.54
2018-08-23T12:01:20.365Z,24.57
2018-08-23T12:03:49.436Z,24.56
2018-08-23T12:06:18.691Z,24.59
2018-08-23T12:08:47.841Z,24.58
2018-08-23T12:11:17.023Z,24.62
2018-08-23T12:13:47.525Z,24.64
2018-08-23T12:16:16.687Z,24.58
2018-08-23T12:18:45.780Z,24.60
2018-08-23T12:21:14.835Z,24.53
2018-08-23T12:23:43.925Z,24.55
2018-08-23T12:26:13.373Z,24.61
2018-08-23T12:28:48.132Z,24.63
2018-08-23T12:31:17.571Z,24.63
2018-08-23T12:33:46.668Z,24.66
2018-08-23T12:36:19.999Z,24.64
2018-08-23T12:38:54.426Z,24.57
2018-08-23T12:41:28.880Z,24.51
2018-08-23T12:43:58.025Z,24.56
2018-08-23T12:46:27.297Z,24.56
2018-08-23T12:48:57.887Z,24.61
2018-08-23T12:51:27.051Z,24.58
2018-08-23T12:53:56.182Z,24.58
2018-08-23T12:56:25.385Z,24.60
2018-08-23T12:58:54.648Z,24.62
2018-08-23T13:01:23.757Z,24.60
2018-08-23T13:03:53.323Z,24.60
2018-08-23T13:06:22.582Z,24.63
2018-08-23T13:08:52.262Z,24.63
2018-08-23T13:11:21.449Z,24.67
2018-08-23T13:13:50.671Z,24.71
2018-08-23T13:16:19.932Z,24.75
2018-08-23T13:18:49.173Z,24.79
2018-08-23T13:21:18.561Z,24.78
2018-08-23T13:23:47.865Z,24.75
2018-08-23T13:26:17.113Z,24.86
2018-08-23T13:28:46.236Z,24.88
2018-08-23T13:31:15.332Z,24.89
2018-08-23T13:33:44.507Z,24.92
2018-08-23T13:36:13.661Z,24.95
2018-08-23T13:38:42.881Z,24.94
2018-08-23T13:41:12.039Z,24.97
2018-08-23T13:43:41.240Z,24.98
2018-08-23T13:46:10.631Z,25.04
2018-08-23T13:48:39.682Z,25.05
2018-08-23T13:51:09.343Z,25.07
2018-08-23T13:53:38.801Z,25.07
2018-08-23T13:56:08.143Z,25.13
2018-08-23T13:58:37.252Z,25.15
2018-08-23T14:01:06.511Z,25.15
2018-08-23T14:03:35.624Z,25.18
2018-08-23T14:06:04.856Z,25.23
2018-08-23T14:08:34.192Z,25.26
2018-08-23T14:11:03.396Z,25.30
2018-08-23T14:13:33.630Z,25.29
2018-08-23T14:16:04.051Z,25.35
2018-08-23T14:18:34.247Z,25.40
2018-08-23T14:21:03.631Z,25.48
2018-08-23T14:23:32.744Z,25.52
2018-08-23T14:26:01.878Z,25.53
2018-08-23T14:28:30.945Z,25.56
2018-08-23T14:31:00.314Z,25.61
2018-08-23T14:33:29.957Z,25.61
2018-08-23T14:35:59.528Z,25.58
2018-08-23T14:38:28.724Z,25.59
2018-08-23T14:40:58.337Z,25.63
2018-08-23T14:43:27.975Z,25.60
2018-08-23T14:46:02.523Z,25.62
2018-08-23T14:48:31.635Z,25.62
2018-08-23T14:51:00.711Z,25.65
2018-08-23T14:53:30.844Z,25.64
2018-08-23T14:56:05.329Z,25.62
2018-08-23T14:58:34.471Z,25.59
2018-08-23T15:01:03.673Z,25.59
2018-08-23T15:03:32.799Z,25.60
2018-08-23T15:06:01.909Z,25.61
2018-08-23T15:08:31.174Z,25.64
2018-08-23T15:11:00.296Z,25.66
2018-08-23T15:13:30.571Z,25.73
2018-08-23T15:15:59.695Z,25.76
2018-08-23T15:18:28.815Z,25.75
2018-08-23T15:20:58.945Z,25.80
2018-08-23T15:23:28.555Z,25.85
2018-08-23T15:25:57.720Z,25.89
2018-08-23T15:28:27.027Z,25.91
2018-08-23T15:30:56.199Z,25.90
2018-08-23T15:33:25.286Z,25.94
2018-08-23T15:35:54.488Z,25.98
2018-08-23T15:38:23.709Z,26.01
2018-08-23T15:40:52.926Z,26.02
2018-08-23T15:43:22.206Z,26.01
2018-08-23T15:45:51.275Z,26.07
2018-08-23T15:48:20.487Z,26.09
2018-08-23T15:50:49.707Z,26.08
2018-08-23T15:53:18.883Z,26.12
2018-08-23T15:55:48.380Z,26.14
2018-08-23T15:58:17.695Z,26.15
2018-08-23T16:00:46.877Z,26.16
2018-08-23T16:03:15.972Z,26.17
2018-08-23T16:05:45.045Z,26.17
2018-08-23T16:08:14.137Z,26.17
2018-08-23T16:10:43.293Z,26.17
2018-08-23T16:13:12.459Z,26.16
2018-08-23T16:15:41.721Z,26.11
2018-08-23T16:18:16.099Z,26.11
2018-08-23T16:20:47.505Z,26.05
2018-08-23T16:23:16.618Z,26.07
2018-08-23T16:25:45.808Z,26.05
2018-08-23T16:28:14.900Z,26.01
2018-08-23T16:30:49.351Z,26.00
2018-08-23T16:33:18.549Z,26.01
2018-08-23T16:35:47.619Z,26.01
2018-08-23T16:38:16.745Z,25.99
2018-08-23T16:40:45.811Z,25.99
2018-08-23T16:43:15.072Z,26.00
2018-08-23T16:45:44.226Z,25.99
2018-08-23T16:48:14.231Z,25.97
2018-08-23T16:50:43.404Z,25.98
2018-08-23T16:53:12.567Z,25.98
2018-08-23T16:55:41.832Z,25.98
2018-08-23T16:58:10.999Z,25.97
2018-08-23T17:00:40.127Z,26.02
2018-08-23T17:03:09.462Z,26.09
2018-08-23T17:05:38.539Z,26.10
2018-08-23T17:08:07.619Z,26.10
2018-08-23T17:10:36.692Z,26.11
2018-08-23T17:13:05.813Z,26.13
2018-08-23T17:15:40.032Z,26.17
2018-08-23T17:18:09.317Z,26.16
2018-08-23T17:20:38.473Z,26.15
2018-08-23T17:23:07.684Z,26.18
2018-08-23T17:25:36.924Z,26.16
2018-08-23T17:28:06.394Z,26.18
2018-08-23T17:30:35.512Z,26.16
2018-08-23T17:33:05.258Z,26.17
2018-08-23T17:35:34.440Z,26.18
2018-08-23T17:38:03.676Z,26.17
2018-08-23T17:40:32.744Z,26.21
2018-08-23T17:43:01.958Z,26.21
2018-08-23T17:45:31.252Z,26.19
2018-08-23T17:48:00.337Z,26.20
2018-08-23T17:50:29.454Z,26.18
2018-08-23T17:52:58.838Z,26.17
2018-08-23T17:55:27.951Z,26.18
2018-08-23T17:57:57.295Z,26.20
2018-08-23T18:00:26.416Z,26.16
2018-08-23T18:02:55.488Z,26.15
2018-08-23T18:05:24.640Z,26.13
2018-08-23T18:07:53.797Z,26.11
2018-08-23T18:10:22.892Z,26.06
2018-08-23T18:12:52.041Z,26.07
2018-08-23T18:15:21.466Z,26.02
2018-08-23T18:17:50.935Z,25.95
2018-08-23T18:20:20.253Z,25.96
2018-08-23T18:22:49.466Z,25.95
2018-08-23T18:25:18.643Z,25.97
2018-08-23T18:27:47.980Z,25.94
2018-08-23T18:30:17.185Z,25.90
2018-08-23T18:32:46.623Z,25.86
2018-08-23T18:35:15.704Z,25.84
2018-08-23T18:37:45.137Z,25.82
2018-08-23T18:40:14.407Z,25.80
2018-08-23T18:42:43.514Z,25.81
2018-08-23T18:45:12.778Z,25.76
2018-08-23T18:47:42.980Z,25.78
2018-08-23T18:50:12.103Z,25.76
2018-08-23T18:52:41.454Z,25.75
2018-08-23T18:55:10.758Z,25.73
2018-08-23T18:57:39.919Z,25.73
2018-08-23T19:00:09.214Z,25.70
2018-08-23T19:02:38.318Z,25.67
2018-08-23T19:05:07.430Z,25.67
2018-08-23T19:07:40.464Z,25.62
2018-08-23T19:10:10.354Z,25.60
2018-08-23T19:12:39.639Z,25.55
2018-08-23T19:15:09.254Z,25.47
2018-08-23T19:23:55.217Z,25.28
2018-08-23T19:26:24.340Z,25.33
2018-08-23T19:28:53.569Z,25.27
2018-08-23T19:31:22.749Z,25.29
2018-08-23T19:33:52.156Z,25.31
2018-08-23T19:36:21.375Z,25.27
2018-08-23T19:38:50.535Z,25.22
2018-08-23T19:41:19.778Z,25.12
2018-08-23T19:43:48.974Z,25.19
2018-08-23T19:47:26.295Z,25.18
2018-08-23T19:49:57.920Z,25.20
2018-08-23T19:52:27.104Z,25.18
2018-08-23T19:54:56.309Z,25.15
2018-08-23T19:57:27.988Z,25.17
2018-08-23T19:59:57.149Z,25.18
2018-08-23T20:02:26.220Z,25.15
2018-08-23T20:04:55.328Z,25.14
2018-08-23T20:07:24.815Z,25.11
2018-08-23T20:09:53.900Z,25.00
2018-08-23T20:12:28.625Z,24.83
2018-08-23T20:15:03.404Z,24.91
2018-08-23T20:17:32.767Z,24.96
2018-08-23T20:20:01.988Z,24.94
2018-08-23T20:22:31.088Z,24.96
2018-08-23T20:25:00.290Z,24.94
2018-08-23T20:27:29.591Z,24.90
2018-08-23T20:29:58.687Z,24.73
2018-08-23T20:32:27.739Z,24.59
2018-08-23T20:34:56.892Z,24.62
2018-08-23T20:37:25.947Z,24.66
2018-08-23T20:39:55.068Z,24.67
2018-08-23T20:42:24.790Z,24.64
2018-08-23T20:44:53.852Z,24.59
2018-08-23T20:47:22.987Z,24.58
2018-08-23T20:49:52.088Z,24.53
2018-08-23T20:52:21.292Z,24.54
2018-08-23T20:54:50.371Z,24.52
2018-08-23T20:57:19.444Z,24.49
2018-08-23T20:59:48.536Z,24.46
2018-08-23T21:02:17.648Z,24.47
2018-08-23T21:04:47.046Z,24.46
2018-08-23T21:07:16.140Z,24.46
2018-08-23T21:09:45.242Z,24.42
2018-08-23T21:12:14.553Z,24.41
2018-08-23T21:14:43.639Z,24.36
2018-08-23T21:17:12.696Z,24.36
2018-08-23T21:19:41.756Z,24.32
2018-08-23T21:22:10.919Z,24.26
2018-08-23T21:24:40.145Z,24.25
2018-08-23T21:27:09.223Z,24.24
2018-08-23T21:29:38.303Z,24.24
2018-08-23T21:32:07.483Z,24.21
2018-08-23T21:34:36.638Z,24.20
2018-08-23T21:37:05.827Z,24.20
2018-08-23T21:39:35.056Z,24.17
2018-08-23T21:42:04.136Z,24.17
2018-08-23T21:44:33.230Z,24.16
2018-08-23T21:47:02.300Z,24.11
2018-08-23T21:49:31.361Z,24.08
2018-08-23T21:52:00.439Z,24.07
2018-08-23T21:54:29.568Z,24.05
2018-08-23T21:56:58.749Z,24.04
2018-08-23T21:59:27.872Z,24.04
2018-08-23T22:02:02.300Z,24.02
2018-08-23T22:04:31.432Z,24.00
2018-08-23T22:07:00.578Z,24.02
2018-08-23T22:09:29.711Z,23.99
2018-08-23T22:11:58.988Z,24.00
2018-08-23T22:14:28.052Z,23.97
2018-08-23T22:16:57.121Z,23.96
2018-08-23T22:19:26.319Z,23.95
2018-08-23T22:21:55.397Z,23.94
2018-08-23T22:24:24.506Z,23.92
2018-08-23T22:26:53.685Z,23.88
2018-08-23T22:29:22.950Z,23.87
2018-08-23T22:31:52.147Z,23.88
2018-08-23T22:34:21.260Z,23.87
2018-08-23T22:36:50.338Z,23.86
2018-08-23T22:39:19.468Z,23.85
2018-08-23T22:41:48.712Z,23.85
2018-08-23T22:44:17.918Z,23.82
2018-08-23T22:46:47.428Z,23.84
2018-08-23T22:49:16.504Z,23.83
2018-08-23T22:51:45.594Z,23.82
2018-08-23T22:54:14.768Z,23.84
2018-08-23T22:56:44.112Z,23.84
2018-08-23T22:59:13.217Z,23.82
2018-08-23T23:01:42.515Z,23.82
2018-08-23T23:04:16.878Z,23.78
2018-08-23T23:06:45.946Z,23.79
2018-08-23T23:09:15.152Z,23.78
2018-08-23T23:11:44.405Z,23.78
2018-08-23T23:14:13.618Z,23.80
2018-08-23T23:16:42.752Z,23.78
2018-08-23T23:19:11.855Z,23.80
2018-08-23T23:21:41.191Z,23.79
2018-08-23T23:24:14.467Z,23.81
2018-08-23T23:26:43.562Z,23.81
2018-08-23T23:29:12.632Z,23.78
2018-08-23T23:31:41.739Z,23.78
2018-08-23T23:34:10.800Z,23.77
2018-08-23T23:36:39.870Z,23.80
2018-08-23T23:39:09.304Z,23.84
2018-08-23T23:41:38.370Z,23.83
2018-08-23T23:44:07.519Z,23.83
2018-08-23T23:46:36.612Z,23.85
2018-08-23T23:49:05.736Z,23.85
2018-08-23T23:51:34.933Z,23.86
2018-08-23T23:54:04.020Z,23.85
2018-08-23T23:56:33.100Z,23.82
2018-08-23T23:59:02.184Z,23.81
